sensor_id;sensor_type;location;lat;lon;timestamp;P1;durP1;ratioP1;P2;durP2;ratioP2
48635;SDS011;34429;52.332;5.614;2023-03-01T00:01:49;29.88;;;18.05;;
48635;SDS011;34429;52.332;5.614;2023-03-01T00:04:18;33.88;;;19.38;;
48635;SDS011;34429;52.332;5.614;2023-03-01T00:06:46;33.85;;;19.55;;
48635;SDS011;34429;52.332;5.614;2023-03-01T00:09:15;34.75;;;18.73;;
48635;SDS011;34429;52.332;5.614;2023-03-01T00:11:44;38.97;;;19.40;;
48635;SDS011;34429;52.332;5.614;2023-03-01T00:14:12;36.05;;;19.60;;
48635;SDS011;34429;52.332;5.614;2023-03-01T00:16:45;34.45;;;18.17;;
48635;SDS011;34429;52.332;5.614;2023-03-01T00:19:14;35.45;;;16.98;;
48635;SDS011;34429;52.332;5.614;2023-03-01T00:21:44;35.40;;;17.50;;
48635;SDS011;34429;52.332;5.614;2023-03-01T00:24:12;35.20;;;18.10;;
48635;SDS011;34429;52.332;5.614;2023-03-01T00:26:41;31.92;;;17.65;;
48635;SDS011;34429;52.332;5.614;2023-03-01T00:29:09;28.05;;;15.85;;
48635;SDS011;34429;52.332;5.614;2023-03-01T00:31:37;29.05;;;15.43;;
48635;SDS011;34429;52.332;5.614;2023-03-01T00:34:08;25.40;;;14.48;;
48635;SDS011;34429;52.332;5.614;2023-03-01T00:36:37;24.20;;;14.57;;
48635;SDS011;34429;52.332;5.614;2023-03-01T00:39:09;24.20;;;14.32;;
48635;SDS011;34429;52.332;5.614;2023-03-01T00:41:40;23.33;;;14.32;;
48635;SDS011;34429;52.332;5.614;2023-03-01T00:44:09;25.52;;;14.65;;
48635;SDS011;34429;52.332;5.614;2023-03-01T00:46:38;24.52;;;14.18;;
48635;SDS011;34429;52.332;5.614;2023-03-01T00:49:09;21.52;;;13.40;;
48635;SDS011;34429;52.332;5.614;2023-03-01T00:51:37;21.65;;;13.80;;
48635;SDS011;34429;52.332;5.614;2023-03-01T00:54:07;23.35;;;13.90;;
48635;SDS011;34429;52.332;5.614;2023-03-01T00:56:36;23.02;;;13.40;;
48635;SDS011;34429;52.332;5.614;2023-03-01T00:59:05;23.17;;;14.27;;
48635;SDS011;34429;52.332;5.614;2023-03-01T01:01:33;24.02;;;14.55;;
48635;SDS011;34429;52.332;5.614;2023-03-01T01:04:03;24.00;;;13.55;;
48635;SDS011;34429;52.332;5.614;2023-03-01T01:06:36;21.27;;;13.15;;
48635;SDS011;34429;52.332;5.614;2023-03-01T01:09:08;21.95;;;12.90;;
48635;SDS011;34429;52.332;5.614;2023-03-01T01:11:42;20.58;;;12.18;;
48635;SDS011;34429;52.332;5.614;2023-03-01T01:14:11;21.05;;;13.45;;
48635;SDS011;34429;52.332;5.614;2023-03-01T01:16:39;20.73;;;13.27;;
48635;SDS011;34429;52.332;5.614;2023-03-01T01:19:08;18.70;;;13.25;;
48635;SDS011;34429;52.332;5.614;2023-03-01T01:21:39;21.95;;;13.02;;
48635;SDS011;34429;52.332;5.614;2023-03-01T01:24:09;20.35;;;12.75;;
48635;SDS011;34429;52.332;5.614;2023-03-01T01:26:38;17.95;;;12.55;;
48635;SDS011;34429;52.332;5.614;2023-03-01T01:29:06;19.80;;;12.38;;
48635;SDS011;34429;52.332;5.614;2023-03-01T01:31:35;19.63;;;11.93;;
48635;SDS011;34429;52.332;5.614;2023-03-01T01:34:06;19.27;;;12.02;;
48635;SDS011;34429;52.332;5.614;2023-03-01T01:36:36;20.25;;;11.77;;
48635;SDS011;34429;52.332;5.614;2023-03-01T01:39:07;21.40;;;11.02;;
48635;SDS011;34429;52.332;5.614;2023-03-01T01:41:38;17.50;;;11.38;;
48635;SDS011;34429;52.332;5.614;2023-03-01T01:44:12;20.15;;;10.68;;
48635;SDS011;34429;52.332;5.614;2023-03-01T01:46:44;19.88;;;11.85;;
48635;SDS011;34429;52.332;5.614;2023-03-01T01:49:26;17.52;;;11.57;;
48635;SDS011;34429;52.332;5.614;2023-03-01T01:52:02;21.00;;;11.07;;
48635;SDS011;34429;52.332;5.614;2023-03-01T01:54:41;17.80;;;10.98;;
48635;SDS011;34429;52.332;5.614;2023-03-01T01:57:14;20.02;;;11.35;;
48635;SDS011;34429;52.332;5.614;2023-03-01T01:59:50;19.30;;;10.63;;
48635;SDS011;34429;52.332;5.614;2023-03-01T02:02:21;18.38;;;11.55;;
48635;SDS011;34429;52.332;5.614;2023-03-01T02:04:50;19.75;;;11.30;;
48635;SDS011;34429;52.332;5.614;2023-03-01T02:07:24;17.75;;;10.63;;
48635;SDS011;34429;52.332;5.614;2023-03-01T02:09:56;17.20;;;11.60;;
48635;SDS011;34429;52.332;5.614;2023-03-01T02:12:28;18.05;;;11.38;;
48635;SDS011;34429;52.332;5.614;2023-03-01T02:14:57;17.67;;;11.38;;
48635;SDS011;34429;52.332;5.614;2023-03-01T02:17:25;16.20;;;11.30;;
48635;SDS011;34429;52.332;5.614;2023-03-01T02:19:57;17.45;;;11.23;;
48635;SDS011;34429;52.332;5.614;2023-03-01T02:22:35;17.83;;;11.50;;
48635;SDS011;34429;52.332;5.614;2023-03-01T02:25:12;18.00;;;11.45;;
48635;SDS011;34429;52.332;5.614;2023-03-01T02:28:04;16.90;;;11.52;;
48635;SDS011;34429;52.332;5.614;2023-03-01T02:30:48;18.60;;;12.02;;
48635;SDS011;34429;52.332;5.614;2023-03-01T02:33:30;22.23;;;12.77;;
48635;SDS011;34429;52.332;5.614;2023-03-01T02:36:01;17.25;;;12.18;;
48635;SDS011;34429;52.332;5.614;2023-03-01T02:38:32;20.55;;;13.35;;
48635;SDS011;34429;52.332;5.614;2023-03-01T02:41:01;18.23;;;11.88;;
48635;SDS011;34429;52.332;5.614;2023-03-01T02:43:31;20.25;;;12.68;;
48635;SDS011;34429;52.332;5.614;2023-03-01T02:46:05;22.50;;;12.20;;
48635;SDS011;34429;52.332;5.614;2023-03-01T02:48:39;23.23;;;12.75;;
48635;SDS011;34429;52.332;5.614;2023-03-01T02:51:13;21.98;;;13.35;;
48635;SDS011;34429;52.332;5.614;2023-03-01T02:53:58;19.65;;;12.18;;
48635;SDS011;34429;52.332;5.614;2023-03-01T02:56:35;20.55;;;12.50;;
48635;SDS011;34429;52.332;5.614;2023-03-01T02:59:03;20.08;;;13.00;;
48635;SDS011;34429;52.332;5.614;2023-03-01T03:01:35;19.38;;;12.18;;
48635;SDS011;34429;52.332;5.614;2023-03-01T03:04:07;23.35;;;13.73;;
48635;SDS011;34429;52.332;5.614;2023-03-01T03:06:37;24.88;;;14.73;;
48635;SDS011;34429;52.332;5.614;2023-03-01T03:09:06;25.02;;;13.82;;
48635;SDS011;34429;52.332;5.614;2023-03-01T03:11:34;23.15;;;13.45;;
48635;SDS011;34429;52.332;5.614;2023-03-01T03:16:40;24.90;;;13.02;;
48635;SDS011;34429;52.332;5.614;2023-03-01T03:19:09;26.55;;;15.25;;
48635;SDS011;34429;52.332;5.614;2023-03-01T03:21:38;27.05;;;14.98;;
48635;SDS011;34429;52.332;5.614;2023-03-01T03:24:07;31.17;;;16.15;;
48635;SDS011;34429;52.332;5.614;2023-03-01T03:26:36;24.33;;;14.50;;
48635;SDS011;34429;52.332;5.614;2023-03-01T03:29:04;27.42;;;15.10;;
48635;SDS011;34429;52.332;5.614;2023-03-01T03:31:33;24.58;;;15.38;;
48635;SDS011;34429;52.332;5.614;2023-03-01T03:34:04;28.92;;;15.93;;
48635;SDS011;34429;52.332;5.614;2023-03-01T03:36:32;28.50;;;15.93;;
48635;SDS011;34429;52.332;5.614;2023-03-01T03:39:00;27.33;;;15.73;;
48635;SDS011;34429;52.332;5.614;2023-03-01T03:41:30;27.05;;;14.98;;
48635;SDS011;34429;52.332;5.614;2023-03-01T03:44:02;26.05;;;15.13;;
48635;SDS011;34429;52.332;5.614;2023-03-01T03:46:30;27.95;;;15.27;;
48635;SDS011;34429;52.332;5.614;2023-03-01T03:48:58;24.60;;;14.35;;
48635;SDS011;34429;52.332;5.614;2023-03-01T03:51:29;25.30;;;14.57;;
48635;SDS011;34429;52.332;5.614;2023-03-01T03:53:58;20.98;;;13.20;;
48635;SDS011;34429;52.332;5.614;2023-03-01T03:56:26;25.20;;;13.52;;
48635;SDS011;34429;52.332;5.614;2023-03-01T03:58:54;27.77;;;14.93;;
48635;SDS011;34429;52.332;5.614;2023-03-01T04:01:23;24.85;;;14.50;;
48635;SDS011;34429;52.332;5.614;2023-03-01T04:03:51;25.25;;;14.45;;
48635;SDS011;34429;52.332;5.614;2023-03-01T04:06:19;23.25;;;13.95;;
48635;SDS011;34429;52.332;5.614;2023-03-01T04:08:50;26.27;;;14.43;;
48635;SDS011;34429;52.332;5.614;2023-03-01T04:11:25;24.58;;;14.60;;
48635;SDS011;34429;52.332;5.614;2023-03-01T04:13:56;25.33;;;14.88;;
48635;SDS011;34429;52.332;5.614;2023-03-01T04:16:26;29.30;;;16.70;;
48635;SDS011;34429;52.332;5.614;2023-03-01T04:18:54;24.70;;;15.20;;
48635;SDS011;34429;52.332;5.614;2023-03-01T04:21:24;24.60;;;15.02;;
48635;SDS011;34429;52.332;5.614;2023-03-01T04:23:55;27.37;;;16.27;;
48635;SDS011;34429;52.332;5.614;2023-03-01T04:26:24;27.83;;;15.45;;
48635;SDS011;34429;52.332;5.614;2023-03-01T04:28:52;31.27;;;17.00;;
48635;SDS011;34429;52.332;5.614;2023-03-01T04:31:20;30.85;;;16.88;;
48635;SDS011;34429;52.332;5.614;2023-03-01T04:33:49;37.55;;;18.00;;
48635;SDS011;34429;52.332;5.614;2023-03-01T04:36:19;39.75;;;18.73;;
48635;SDS011;34429;52.332;5.614;2023-03-01T04:38:49;40.00;;;19.33;;
48635;SDS011;34429;52.332;5.614;2023-03-01T04:41:21;68.05;;;23.23;;
48635;SDS011;34429;52.332;5.614;2023-03-01T04:43:52;46.50;;;20.05;;
48635;SDS011;34429;52.332;5.614;2023-03-01T04:46:20;41.20;;;20.48;;
48635;SDS011;34429;52.332;5.614;2023-03-01T04:48:49;47.15;;;19.58;;
48635;SDS011;34429;52.332;5.614;2023-03-01T04:51:17;57.03;;;21.48;;
48635;SDS011;34429;52.332;5.614;2023-03-01T04:53:45;47.83;;;21.23;;
48635;SDS011;34429;52.332;5.614;2023-03-01T04:56:14;46.03;;;20.27;;
48635;SDS011;34429;52.332;5.614;2023-03-01T04:58:45;41.40;;;20.65;;
48635;SDS011;34429;52.332;5.614;2023-03-01T05:01:14;46.03;;;19.83;;
48635;SDS011;34429;52.332;5.614;2023-03-01T05:03:45;45.45;;;20.05;;
48635;SDS011;34429;52.332;5.614;2023-03-01T05:06:15;40.05;;;19.67;;
48635;SDS011;34429;52.332;5.614;2023-03-01T05:08:44;43.88;;;19.35;;
48635;SDS011;34429;52.332;5.614;2023-03-01T05:11:12;45.47;;;20.92;;
48635;SDS011;34429;52.332;5.614;2023-03-01T05:13:41;39.17;;;19.92;;
48635;SDS011;34429;52.332;5.614;2023-03-01T05:16:12;37.05;;;19.75;;
48635;SDS011;34429;52.332;5.614;2023-03-01T05:18:41;38.05;;;19.33;;
48635;SDS011;34429;52.332;5.614;2023-03-01T05:21:12;43.88;;;20.67;;
48635;SDS011;34429;52.332;5.614;2023-03-01T05:23:43;34.35;;;19.38;;
48635;SDS011;34429;52.332;5.614;2023-03-01T05:26:11;37.03;;;18.88;;
48635;SDS011;34429;52.332;5.614;2023-03-01T05:28:40;36.47;;;19.08;;
48635;SDS011;34429;52.332;5.614;2023-03-01T05:31:09;35.63;;;18.08;;
48635;SDS011;34429;52.332;5.614;2023-03-01T05:33:40;39.28;;;19.23;;
48635;SDS011;34429;52.332;5.614;2023-03-01T05:36:09;37.30;;;19.40;;
48635;SDS011;34429;52.332;5.614;2023-03-01T05:38:38;34.58;;;18.58;;
48635;SDS011;34429;52.332;5.614;2023-03-01T05:41:12;34.67;;;17.85;;
48635;SDS011;34429;52.332;5.614;2023-03-01T05:43:42;33.85;;;17.55;;
48635;SDS011;34429;52.332;5.614;2023-03-01T05:46:12;35.08;;;18.67;;
48635;SDS011;34429;52.332;5.614;2023-03-01T05:48:41;34.97;;;18.60;;
48635;SDS011;34429;52.332;5.614;2023-03-01T05:51:09;35.60;;;18.70;;
48635;SDS011;34429;52.332;5.614;2023-03-01T05:53:37;34.10;;;17.60;;
48635;SDS011;34429;52.332;5.614;2023-03-01T05:56:06;32.30;;;17.65;;
48635;SDS011;34429;52.332;5.614;2023-03-01T05:58:35;36.53;;;18.67;;
48635;SDS011;34429;52.332;5.614;2023-03-01T06:01:04;34.33;;;18.60;;
48635;SDS011;34429;52.332;5.614;2023-03-01T06:03:35;33.30;;;18.70;;
48635;SDS011;34429;52.332;5.614;2023-03-01T06:06:03;29.35;;;16.92;;
48635;SDS011;34429;52.332;5.614;2023-03-01T06:08:32;34.67;;;18.27;;
48635;SDS011;34429;52.332;5.614;2023-03-01T06:11:00;35.20;;;17.92;;
48635;SDS011;34429;52.332;5.614;2023-03-01T06:13:28;36.15;;;18.65;;
48635;SDS011;34429;52.332;5.614;2023-03-01T06:15:57;34.17;;;18.08;;
48635;SDS011;34429;52.332;5.614;2023-03-01T06:18:25;39.53;;;19.50;;
48635;SDS011;34429;52.332;5.614;2023-03-01T06:20:56;39.67;;;20.27;;
48635;SDS011;34429;52.332;5.614;2023-03-01T06:23:25;37.00;;;19.55;;
48635;SDS011;34429;52.332;5.614;2023-03-01T06:25:53;35.57;;;18.83;;
48635;SDS011;34429;52.332;5.614;2023-03-01T06:28:22;35.65;;;19.48;;
48635;SDS011;34429;52.332;5.614;2023-03-01T06:30:50;35.40;;;18.57;;
48635;SDS011;34429;52.332;5.614;2023-03-01T06:33:20;35.00;;;19.40;;
48635;SDS011;34429;52.332;5.614;2023-03-01T06:35:49;37.03;;;19.67;;
48635;SDS011;34429;52.332;5.614;2023-03-01T06:38:21;35.45;;;19.27;;
48635;SDS011;34429;52.332;5.614;2023-03-01T06:40:52;36.95;;;19.25;;
48635;SDS011;34429;52.332;5.614;2023-03-01T06:43:21;36.10;;;19.27;;
48635;SDS011;34429;52.332;5.614;2023-03-01T06:45:50;33.85;;;17.60;;
48635;SDS011;34429;52.332;5.614;2023-03-01T06:48:19;32.55;;;19.35;;
48635;SDS011;34429;52.332;5.614;2023-03-01T06:50:47;33.53;;;19.13;;
48635;SDS011;34429;52.332;5.614;2023-03-01T06:53:15;33.92;;;17.35;;
48635;SDS011;34429;52.332;5.614;2023-03-01T06:55:46;34.72;;;20.10;;
48635;SDS011;34429;52.332;5.614;2023-03-01T06:58:14;37.13;;;18.58;;
48635;SDS011;34429;52.332;5.614;2023-03-01T07:00:43;36.42;;;19.75;;
48635;SDS011;34429;52.332;5.614;2023-03-01T07:03:17;35.00;;;19.47;;
48635;SDS011;34429;52.332;5.614;2023-03-01T07:05:48;36.92;;;19.33;;
48635;SDS011;34429;52.332;5.614;2023-03-01T07:08:17;37.45;;;19.00;;
48635;SDS011;34429;52.332;5.614;2023-03-01T07:10:48;32.10;;;17.60;;
48635;SDS011;34429;52.332;5.614;2023-03-01T07:13:22;32.35;;;19.10;;
48635;SDS011;34429;52.332;5.614;2023-03-01T07:15:51;30.45;;;17.08;;
48635;SDS011;34429;52.332;5.614;2023-03-01T07:18:19;30.95;;;17.63;;
48635;SDS011;34429;52.332;5.614;2023-03-01T07:20:47;32.22;;;17.63;;
48635;SDS011;34429;52.332;5.614;2023-03-01T07:23:18;33.00;;;18.35;;
48635;SDS011;34429;52.332;5.614;2023-03-01T07:25:53;31.67;;;16.70;;
48635;SDS011;34429;52.332;5.614;2023-03-01T07:28:22;31.55;;;18.42;;
48635;SDS011;34429;52.332;5.614;2023-03-01T07:30:51;32.08;;;17.17;;
48635;SDS011;34429;52.332;5.614;2023-03-01T07:33:19;30.67;;;17.50;;
48635;SDS011;34429;52.332;5.614;2023-03-01T07:35:48;28.70;;;16.23;;
48635;SDS011;34429;52.332;5.614;2023-03-01T07:38:23;32.05;;;17.52;;
48635;SDS011;34429;52.332;5.614;2023-03-01T07:40:57;35.30;;;18.05;;
48635;SDS011;34429;52.332;5.614;2023-03-01T07:43:26;35.60;;;19.67;;
48635;SDS011;34429;52.332;5.614;2023-03-01T07:45:54;33.10;;;18.43;;
48635;SDS011;34429;52.332;5.614;2023-03-01T07:48:25;39.17;;;21.08;;
48635;SDS011;34429;52.332;5.614;2023-03-01T07:50:53;40.70;;;21.33;;
48635;SDS011;34429;52.332;5.614;2023-03-01T07:53:22;37.00;;;20.10;;
48635;SDS011;34429;52.332;5.614;2023-03-01T07:55:51;39.28;;;19.98;;
48635;SDS011;34429;52.332;5.614;2023-03-01T07:58:31;36.72;;;19.83;;
48635;SDS011;34429;52.332;5.614;2023-03-01T08:01:02;37.55;;;20.58;;
48635;SDS011;34429;52.332;5.614;2023-03-01T08:03:31;36.47;;;20.83;;
48635;SDS011;34429;52.332;5.614;2023-03-01T08:05:59;37.75;;;19.38;;
48635;SDS011;34429;52.332;5.614;2023-03-01T08:08:28;40.35;;;21.85;;
48635;SDS011;34429;52.332;5.614;2023-03-01T08:10:57;39.83;;;20.63;;
48635;SDS011;34429;52.332;5.614;2023-03-01T08:13:28;40.40;;;20.77;;
48635;SDS011;34429;52.332;5.614;2023-03-01T08:16:00;41.65;;;20.38;;
48635;SDS011;34429;52.332;5.614;2023-03-01T08:18:29;41.78;;;20.05;;
48635;SDS011;34429;52.332;5.614;2023-03-01T08:21:01;35.22;;;19.10;;
48635;SDS011;34429;52.332;5.614;2023-03-01T08:23:29;42.33;;;20.25;;
48635;SDS011;34429;52.332;5.614;2023-03-01T08:26:05;37.50;;;20.40;;
48635;SDS011;34429;52.332;5.614;2023-03-01T08:28:37;34.00;;;18.90;;
48635;SDS011;34429;52.332;5.614;2023-03-01T08:31:13;32.95;;;17.35;;
48635;SDS011;34429;52.332;5.614;2023-03-01T08:33:42;32.20;;;18.00;;
48635;SDS011;34429;52.332;5.614;2023-03-01T08:36:15;34.90;;;16.75;;
48635;SDS011;34429;52.332;5.614;2023-03-01T08:38:46;31.77;;;17.52;;
48635;SDS011;34429;52.332;5.614;2023-03-01T08:41:14;33.27;;;16.83;;
48635;SDS011;34429;52.332;5.614;2023-03-01T08:43:45;31.98;;;17.92;;
48635;SDS011;34429;52.332;5.614;2023-03-01T08:46:14;31.75;;;16.02;;
48635;SDS011;34429;52.332;5.614;2023-03-01T08:48:42;29.85;;;16.33;;
48635;SDS011;34429;52.332;5.614;2023-03-01T08:51:11;28.58;;;16.55;;
48635;SDS011;34429;52.332;5.614;2023-03-01T08:53:41;28.42;;;16.20;;
48635;SDS011;34429;52.332;5.614;2023-03-01T08:56:11;28.15;;;15.27;;
48635;SDS011;34429;52.332;5.614;2023-03-01T08:58:39;26.38;;;14.85;;
48635;SDS011;34429;52.332;5.614;2023-03-01T09:01:11;21.38;;;14.20;;
48635;SDS011;34429;52.332;5.614;2023-03-01T09:03:40;25.38;;;13.73;;
48635;SDS011;34429;52.332;5.614;2023-03-01T09:06:09;24.63;;;13.20;;
48635;SDS011;34429;52.332;5.614;2023-03-01T09:11:09;24.67;;;13.48;;
48635;SDS011;34429;52.332;5.614;2023-03-01T09:13:38;19.77;;;12.27;;
48635;SDS011;34429;52.332;5.614;2023-03-01T09:16:07;23.13;;;13.63;;
48635;SDS011;34429;52.332;5.614;2023-03-01T09:18:39;21.80;;;13.10;;
48635;SDS011;34429;52.332;5.614;2023-03-01T09:21:08;22.38;;;12.30;;
48635;SDS011;34429;52.332;5.614;2023-03-01T09:23:38;22.60;;;11.82;;
48635;SDS011;34429;52.332;5.614;2023-03-01T09:26:09;21.58;;;12.43;;
48635;SDS011;34429;52.332;5.614;2023-03-01T09:28:39;20.42;;;12.48;;
48635;SDS011;34429;52.332;5.614;2023-03-01T09:31:07;21.70;;;12.48;;
48635;SDS011;34429;52.332;5.614;2023-03-01T09:33:40;24.17;;;12.93;;
48635;SDS011;34429;52.332;5.614;2023-03-01T09:36:11;24.98;;;13.70;;
48635;SDS011;34429;52.332;5.614;2023-03-01T09:38:41;24.33;;;12.85;;
48635;SDS011;34429;52.332;5.614;2023-03-01T09:41:10;20.35;;;13.02;;
48635;SDS011;34429;52.332;5.614;2023-03-01T09:43:51;20.20;;;12.20;;
48635;SDS011;34429;52.332;5.614;2023-03-01T09:46:24;20.55;;;11.70;;
48635;SDS011;34429;52.332;5.614;2023-03-01T09:48:58;18.63;;;11.45;;
48635;SDS011;34429;52.332;5.614;2023-03-01T09:51:30;18.10;;;11.10;;
48635;SDS011;34429;52.332;5.614;2023-03-01T09:54:01;19.33;;;10.65;;
48635;SDS011;34429;52.332;5.614;2023-03-01T09:56:32;17.98;;;11.10;;
48635;SDS011;34429;52.332;5.614;2023-03-01T09:59:07;16.40;;;10.13;;
48635;SDS011;34429;52.332;5.614;2023-03-01T10:01:46;17.02;;;10.27;;
48635;SDS011;34429;52.332;5.614;2023-03-01T10:04:27;18.13;;;11.00;;
48635;SDS011;34429;52.332;5.614;2023-03-01T10:07:12;14.68;;;9.20;;
48635;SDS011;34429;52.332;5.614;2023-03-01T10:09:48;13.20;;;8.70;;
48635;SDS011;34429;52.332;5.614;2023-03-01T10:12:16;13.27;;;7.78;;
48635;SDS011;34429;52.332;5.614;2023-03-01T10:14:51;9.82;;;6.30;;
48635;SDS011;34429;52.332;5.614;2023-03-01T10:17:26;14.55;;;7.75;;
48635;SDS011;34429;52.332;5.614;2023-03-01T10:20:06;12.82;;;7.32;;
48635;SDS011;34429;52.332;5.614;2023-03-01T10:22:56;11.75;;;6.85;;
48635;SDS011;34429;52.332;5.614;2023-03-01T10:25:30;12.82;;;7.63;;
48635;SDS011;34429;52.332;5.614;2023-03-01T10:28:11;13.27;;;8.80;;
48635;SDS011;34429;52.332;5.614;2023-03-01T10:30:45;15.68;;;9.02;;
48635;SDS011;34429;52.332;5.614;2023-03-01T10:33:15;12.60;;;8.00;;
48635;SDS011;34429;52.332;5.614;2023-03-01T10:35:46;12.07;;;6.75;;
48635;SDS011;34429;52.332;5.614;2023-03-01T10:38:18;10.75;;;6.82;;
48635;SDS011;34429;52.332;5.614;2023-03-01T10:40:51;14.55;;;7.68;;
48635;SDS011;34429;52.332;5.614;2023-03-01T10:43:22;14.15;;;7.65;;
48635;SDS011;34429;52.332;5.614;2023-03-01T10:45:51;12.45;;;8.23;;
48635;SDS011;34429;52.332;5.614;2023-03-01T10:48:21;12.55;;;7.85;;
48635;SDS011;34429;52.332;5.614;2023-03-01T10:51:04;13.77;;;8.13;;
48635;SDS011;34429;52.332;5.614;2023-03-01T10:53:37;15.55;;;8.73;;
48635;SDS011;34429;52.332;5.614;2023-03-01T10:56:09;11.80;;;7.85;;
48635;SDS011;34429;52.332;5.614;2023-03-01T10:58:41;11.90;;;7.63;;
48635;SDS011;34429;52.332;5.614;2023-03-01T11:01:25;11.88;;;6.85;;
48635;SDS011;34429;52.332;5.614;2023-03-01T11:04:07;11.75;;;6.95;;
48635;SDS011;34429;52.332;5.614;2023-03-01T11:06:39;9.25;;;6.13;;
48635;SDS011;34429;52.332;5.614;2023-03-01T11:09:18;8.23;;;4.72;;
48635;SDS011;34429;52.332;5.614;2023-03-01T11:11:51;7.32;;;4.82;;
48635;SDS011;34429;52.332;5.614;2023-03-01T11:14:20;7.38;;;5.18;;
48635;SDS011;34429;52.332;5.614;2023-03-01T11:16:57;8.90;;;5.00;;
48635;SDS011;34429;52.332;5.614;2023-03-01T11:19:27;8.48;;;5.32;;
48635;SDS011;34429;52.332;5.614;2023-03-01T11:21:58;9.13;;;5.30;;
48635;SDS011;34429;52.332;5.614;2023-03-01T11:24:34;9.50;;;5.00;;
48635;SDS011;34429;52.332;5.614;2023-03-01T11:27:08;9.00;;;4.60;;
48635;SDS011;34429;52.332;5.614;2023-03-01T11:29:45;7.90;;;4.53;;
48635;SDS011;34429;52.332;5.614;2023-03-01T11:32:18;7.32;;;4.38;;
48635;SDS011;34429;52.332;5.614;2023-03-01T11:34:50;6.32;;;4.00;;
48635;SDS011;34429;52.332;5.614;2023-03-01T11:37:30;5.90;;;4.35;;
48635;SDS011;34429;52.332;5.614;2023-03-01T11:40:09;5.45;;;3.40;;
48635;SDS011;34429;52.332;5.614;2023-03-01T11:42:43;5.03;;;3.35;;
48635;SDS011;34429;52.332;5.614;2023-03-01T11:45:22;4.57;;;3.20;;
48635;SDS011;34429;52.332;5.614;2023-03-01T11:47:55;5.18;;;3.25;;
48635;SDS011;34429;52.332;5.614;2023-03-01T11:50:35;7.03;;;4.03;;
48635;SDS011;34429;52.332;5.614;2023-03-01T11:58:54;6.30;;;4.00;;
48635;SDS011;34429;52.332;5.614;2023-03-01T12:01:44;7.72;;;4.47;;
48635;SDS011;34429;52.332;5.614;2023-03-01T12:04:36;6.75;;;4.30;;
48635;SDS011;34429;52.332;5.614;2023-03-01T12:07:27;12.40;;;6.00;;
48635;SDS011;34429;52.332;5.614;2023-03-01T12:10:19;7.88;;;4.60;;
48635;SDS011;34429;52.332;5.614;2023-03-01T12:13:02;10.18;;;4.88;;
48635;SDS011;34429;52.332;5.614;2023-03-01T12:15:46;6.50;;;4.43;;
48635;SDS011;34429;52.332;5.614;2023-03-01T12:18:30;7.30;;;4.72;;
48635;SDS011;34429;52.332;5.614;2023-03-01T12:21:14;8.20;;;4.72;;
48635;SDS011;34429;52.332;5.614;2023-03-01T12:26:49;7.30;;;4.07;;
48635;SDS011;34429;52.332;5.614;2023-03-01T12:29:29;7.45;;;4.03;;
48635;SDS011;34429;52.332;5.614;2023-03-01T12:32:06;7.93;;;4.68;;
48635;SDS011;34429;52.332;5.614;2023-03-01T12:37:47;6.00;;;4.20;;
48635;SDS011;34429;52.332;5.614;2023-03-01T12:43:17;8.40;;;3.83;;
48635;SDS011;34429;52.332;5.614;2023-03-01T12:46:01;9.80;;;4.80;;
48635;SDS011;34429;52.332;5.614;2023-03-01T12:48:43;6.40;;;3.72;;
48635;SDS011;34429;52.332;5.614;2023-03-01T12:51:23;6.85;;;4.28;;
48635;SDS011;34429;52.332;5.614;2023-03-01T12:53:53;7.57;;;4.13;;
48635;SDS011;34429;52.332;5.614;2023-03-01T12:56:24;7.20;;;4.40;;
48635;SDS011;34429;52.332;5.614;2023-03-01T12:58:57;5.80;;;3.35;;
48635;SDS011;34429;52.332;5.614;2023-03-01T13:01:39;5.55;;;3.58;;
48635;SDS011;34429;52.332;5.614;2023-03-01T13:04:30;5.95;;;3.33;;
48635;SDS011;34429;52.332;5.614;2023-03-01T13:07:16;4.55;;;3.15;;
48635;SDS011;34429;52.332;5.614;2023-03-01T13:09:54;5.03;;;3.17;;
48635;SDS011;34429;52.332;5.614;2023-03-01T13:12:43;5.03;;;3.17;;
48635;SDS011;34429;52.332;5.614;2023-03-01T13:15:24;8.27;;;3.33;;
48635;SDS011;34429;52.332;5.614;2023-03-01T13:18:00;3.97;;;2.80;;
48635;SDS011;34429;52.332;5.614;2023-03-01T13:20:32;4.75;;;3.13;;
48635;SDS011;34429;52.332;5.614;2023-03-01T13:23:12;4.70;;;3.22;;
48635;SDS011;34429;52.332;5.614;2023-03-01T13:28:40;5.43;;;3.47;;
48635;SDS011;34429;52.332;5.614;2023-03-01T13:34:44;5.00;;;3.17;;
48635;SDS011;34429;52.332;5.614;2023-03-01T13:37:24;5.57;;;3.17;;
48635;SDS011;34429;52.332;5.614;2023-03-01T13:39:56;6.63;;;3.50;;
48635;SDS011;34429;52.332;5.614;2023-03-01T13:42:39;6.65;;;3.30;;
48635;SDS011;34429;52.332;5.614;2023-03-01T13:45:21;5.53;;;3.47;;
48635;SDS011;34429;52.332;5.614;2023-03-01T13:47:54;7.82;;;3.42;;
48635;SDS011;34429;52.332;5.614;2023-03-01T13:50:29;5.78;;;3.30;;
48635;SDS011;34429;52.332;5.614;2023-03-01T13:53:02;5.40;;;3.45;;
48635;SDS011;34429;52.332;5.614;2023-03-01T13:55:36;5.93;;;3.03;;
48635;SDS011;34429;52.332;5.614;2023-03-01T13:58:18;5.85;;;3.60;;
48635;SDS011;34429;52.332;5.614;2023-03-01T14:00:57;5.38;;;3.30;;
48635;SDS011;34429;52.332;5.614;2023-03-01T14:03:27;5.28;;;3.15;;
48635;SDS011;34429;52.332;5.614;2023-03-01T14:06:04;4.78;;;3.08;;
48635;SDS011;34429;52.332;5.614;2023-03-01T14:08:34;4.90;;;2.85;;
48635;SDS011;34429;52.332;5.614;2023-03-01T14:14:38;5.68;;;3.35;;
48635;SDS011;34429;52.332;5.614;2023-03-01T14:17:24;5.40;;;3.08;;
48635;SDS011;34429;52.332;5.614;2023-03-01T14:20:14;5.47;;;3.30;;
48635;SDS011;34429;52.332;5.614;2023-03-01T14:22:49;8.90;;;3.53;;
48635;SDS011;34429;52.332;5.614;2023-03-01T14:25:21;7.18;;;3.35;;
48635;SDS011;34429;52.332;5.614;2023-03-01T14:28:02;4.50;;;2.88;;
48635;SDS011;34429;52.332;5.614;2023-03-01T14:30:34;5.13;;;3.50;;
48635;SDS011;34429;52.332;5.614;2023-03-01T14:33:16;7.43;;;3.30;;
48635;SDS011;34429;52.332;5.614;2023-03-01T14:35:54;6.13;;;3.50;;
48635;SDS011;34429;52.332;5.614;2023-03-01T14:38:31;7.05;;;3.95;;
48635;SDS011;34429;52.332;5.614;2023-03-01T14:41:03;6.28;;;3.47;;
48635;SDS011;34429;52.332;5.614;2023-03-01T14:43:37;8.48;;;4.15;;
48635;SDS011;34429;52.332;5.614;2023-03-01T14:46:16;11.63;;;5.85;;
48635;SDS011;34429;52.332;5.614;2023-03-01T14:48:48;7.10;;;3.60;;
48635;SDS011;34429;52.332;5.614;2023-03-01T14:51:17;9.27;;;3.90;;
48635;SDS011;34429;52.332;5.614;2023-03-01T14:53:49;9.18;;;4.05;;
48635;SDS011;34429;52.332;5.614;2023-03-01T14:56:18;18.02;;;7.15;;
48635;SDS011;34429;52.332;5.614;2023-03-01T14:58:50;8.40;;;4.82;;
48635;SDS011;34429;52.332;5.614;2023-03-01T15:01:19;7.93;;;3.85;;
48635;SDS011;34429;52.332;5.614;2023-03-01T15:03:49;11.32;;;5.70;;
48635;SDS011;34429;52.332;5.614;2023-03-01T15:06:19;9.45;;;4.60;;
48635;SDS011;34429;52.332;5.614;2023-03-01T15:08:52;9.57;;;4.80;;
48635;SDS011;34429;52.332;5.614;2023-03-01T15:11:23;7.47;;;4.60;;
48635;SDS011;34429;52.332;5.614;2023-03-01T15:13:56;9.63;;;4.35;;
48635;SDS011;34429;52.332;5.614;2023-03-01T15:18:54;8.35;;;4.90;;
48635;SDS011;34429;52.332;5.614;2023-03-01T15:21:26;5.90;;;3.70;;
48635;SDS011;34429;52.332;5.614;2023-03-01T15:24:01;8.63;;;4.68;;
48635;SDS011;34429;52.332;5.614;2023-03-01T15:26:45;6.30;;;3.83;;
48635;SDS011;34429;52.332;5.614;2023-03-01T15:29:21;7.22;;;4.05;;
48635;SDS011;34429;52.332;5.614;2023-03-01T15:31:55;6.53;;;4.22;;